createdAt,value
2019-04-16T00:00:19.965Z,10.23
2019-04-16T00:01:19.978Z,10.27
2019-04-16T00:02:19.988Z,10.27
2019-04-16T00:03:20.303Z,10.30
2019-04-16T00:04:22.285Z,10.27
2019-04-16T00:05:20.028Z,10.25
2019-04-16T00:06:20.051Z,10.32
2019-04-16T00:07:20.075Z,10.29
2019-04-16T00:08:27.705Z,10.22
2019-04-16T00:09:20.097Z,10.14
2019-04-16T00:10:20.096Z,10.32
2019-04-16T00:11:20.113Z,10.23
2019-04-16T00:12:20.124Z,10.18
2019-04-16T00:13:20.151Z,10.20
2019-04-16T00:14:20.151Z,10.22
2019-04-16T00:15:20.165Z,10.18
2019-04-16T00:16:20.176Z,10.14
2019-04-16T00:17:20.203Z,10.12
2019-04-16T00:18:20.211Z,10.02
2019-04-16T00:19:20.227Z,10.05
2019-04-16T00:20:20.230Z,10.09
2019-04-16T00:21:20.244Z,10.09
2019-04-16T00:22:20.265Z,10.09
2019-04-16T00:23:20.300Z,10.14
2019-04-16T00:24:20.288Z,10.08
2019-04-16T00:25:20.296Z,10.14
2019-04-16T00:26:20.316Z,10.04
2019-04-16T00:27:20.330Z,10.14
2019-04-16T00:28:20.344Z,10.05
2019-04-16T00:29:20.360Z,10.08
2019-04-16T00:30:20.363Z,10.07
2019-04-16T00:31:20.378Z,10.14
2019-04-16T00:32:20.399Z,10.07
2019-04-16T00:33:20.408Z,10.04
2019-04-16T00:34:20.422Z,10.02
2019-04-16T00:35:20.430Z,9.93
2019-04-16T00:36:20.443Z,9.94
2019-04-16T00:37:21.262Z,9.97
2019-04-16T00:38:22.649Z,9.97
2019-04-16T00:39:24.491Z,9.94
2019-04-16T00:40:20.497Z,9.91
2019-04-16T00:41:20.521Z,9.90
2019-04-16T00:42:20.530Z,9.87
2019-04-16T00:43:20.537Z,9.87
2019-04-16T00:44:20.556Z,9.89
2019-04-16T00:45:20.561Z,9.90
2019-04-16T00:46:20.582Z,9.81
2019-04-16T00:47:20.587Z,9.78
2019-04-16T00:48:20.607Z,9.76
2019-04-16T00:49:20.617Z,9.83
2019-04-16T00:50:20.629Z,9.79
2019-04-16T00:51:20.642Z,9.87
2019-04-16T00:52:20.655Z,9.83
2019-04-16T00:53:20.666Z,9.83
2019-04-16T00:54:20.684Z,9.81
2019-04-16T00:55:20.716Z,9.78
2019-04-16T00:56:20.714Z,9.71
2019-04-16T00:57:20.732Z,9.75
2019-04-16T00:58:20.734Z,9.74
2019-04-16T00:59:21.310Z,9.76
2019-04-16T01:00:20.761Z,9.75
2019-04-16T01:01:20.838Z,9.66
2019-04-16T01:02:20.793Z,9.58
2019-04-16T01:03:20.801Z,9.57
2019-04-16T01:04:20.814Z,9.64
2019-04-16T01:05:20.825Z,9.47
2019-04-16T01:06:20.841Z,9.42
2019-04-16T01:07:20.856Z,9.54
2019-04-16T01:08:20.866Z,9.58
2019-04-16T01:09:20.879Z,9.47
2019-04-16T01:10:20.892Z,9.48
2019-04-16T01:11:20.913Z,9.58
2019-04-16T01:12:20.916Z,9.57
2019-04-16T01:13:21.703Z,9.54
2019-04-16T01:14:20.950Z,9.57
2019-04-16T01:15:20.959Z,9.47
2019-04-16T01:16:21.018Z,9.43
2019-04-16T01:17:20.984Z,9.43
2019-04-16T01:18:20.998Z,9.53
2019-04-16T01:19:21.272Z,9.50
2019-04-16T01:20:21.030Z,9.50
2019-04-16T01:21:21.041Z,9.54
2019-04-16T01:22:21.054Z,9.51
2019-04-16T01:23:21.070Z,9.51
2019-04-16T01:24:21.221Z,9.50
2019-04-16T01:25:23.293Z,9.47
2019-04-16T01:26:21.104Z,9.48
2019-04-16T01:27:21.114Z,9.46
2019-04-16T01:28:21.124Z,9.51
2019-04-16T01:29:21.144Z,9.50
2019-04-16T01:30:21.154Z,9.57
2019-04-16T01:31:21.174Z,9.47
2019-04-16T01:32:21.179Z,9.48
2019-04-16T01:33:21.191Z,9.47
2019-04-16T01:34:21.204Z,9.48
2019-04-16T01:35:21.235Z,9.38
2019-04-16T01:36:22.821Z,9.48
2019-04-16T01:37:25.536Z,9.46
2019-04-16T01:38:21.266Z,9.39
2019-04-16T01:39:21.279Z,9.42
2019-04-16T01:40:21.281Z,9.40
2019-04-16T01:41:22.065Z,9.40
2019-04-16T01:42:23.686Z,9.35
2019-04-16T01:43:25.482Z,9.31
2019-04-16T01:44:21.336Z,9.39
2019-04-16T01:45:21.350Z,9.38
2019-04-16T01:46:21.372Z,9.39
2019-04-16T01:47:21.429Z,9.38
2019-04-16T01:48:21.390Z,9.28
2019-04-16T01:49:21.408Z,9.40
2019-04-16T01:50:21.413Z,9.26
2019-04-16T01:51:21.429Z,9.32
2019-04-16T01:52:21.440Z,9.20
2019-04-16T01:53:21.701Z,9.28
2019-04-16T01:54:22.919Z,9.23
2019-04-16T01:55:25.516Z,9.28
2019-04-16T01:56:21.494Z,9.26
2019-04-16T01:57:21.510Z,9.17
2019-04-16T01:58:21.517Z,9.24
2019-04-16T01:59:21.537Z,9.20
2019-04-16T02:00:21.544Z,9.23
2019-04-16T02:01:21.561Z,9.29
2019-04-16T02:02:21.569Z,9.21
2019-04-16T02:03:21.584Z,9.20
2019-04-16T02:04:21.603Z,9.08
2019-04-16T02:05:23.215Z,9.11
2019-04-16T02:06:25.615Z,9.11
2019-04-16T02:07:21.638Z,9.02
2019-04-16T02:08:21.657Z,9.05
2019-04-16T02:09:22.921Z,8.95
2019-04-16T02:10:21.673Z,9.05
2019-04-16T02:11:21.689Z,9.05
2019-04-16T02:12:21.700Z,9.05
2019-04-16T02:13:21.714Z,9.08
2019-04-16T02:14:22.391Z,9.10
2019-04-16T02:15:22.452Z,9.04
2019-04-16T02:16:22.406Z,9.04
2019-04-16T02:17:26.735Z,9.01
2019-04-16T02:18:21.778Z,9.10
2019-04-16T02:19:21.800Z,9.10
2019-04-16T02:20:21.813Z,9.04
2019-04-16T02:21:21.820Z,9.01
2019-04-16T02:22:21.827Z,9.05
2019-04-16T02:23:21.844Z,9.08
2019-04-16T02:24:21.855Z,8.98
2019-04-16T02:25:21.872Z,9.02
2019-04-16T02:26:23.414Z,9.05
2019-04-16T02:27:23.501Z,9.02
2019-04-16T02:28:22.068Z,9.01
2019-04-16T02:29:21.919Z,9.01
2019-04-16T02:30:21.929Z,8.95
2019-04-16T02:31:21.943Z,8.98
2019-04-16T02:32:21.959Z,8.99
2019-04-16T02:33:21.966Z,8.92
2019-04-16T02:34:21.997Z,8.92
2019-04-16T02:35:22.007Z,8.99
2019-04-16T02:36:22.010Z,8.99
2019-04-16T02:37:22.027Z,9.01
2019-04-16T02:38:22.046Z,8.89
2019-04-16T02:39:25.754Z,8.91
2019-04-16T02:40:22.070Z,8.80
2019-04-16T02:41:23.373Z,8.91
2019-04-16T02:42:22.080Z,8.86
2019-04-16T02:43:22.103Z,8.80
2019-04-16T02:44:22.110Z,8.95
2019-04-16T02:45:23.654Z,8.80
2019-04-16T02:46:22.137Z,8.83
2019-04-16T02:47:22.151Z,8.81
2019-04-16T02:48:22.168Z,8.77
2019-04-16T02:49:24.513Z,8.80
2019-04-16T02:50:22.190Z,8.74
2019-04-16T02:51:22.202Z,8.86
2019-04-16T02:52:22.212Z,8.74
2019-04-16T02:53:24.543Z,8.89
2019-04-16T02:54:22.247Z,8.73
2019-04-16T02:55:22.253Z,8.87
2019-04-16T02:56:22.265Z,8.76
2019-04-16T02:57:25.819Z,8.68
2019-04-16T02:58:22.293Z,8.65
2019-04-16T02:59:22.315Z,8.76
2019-04-16T03:00:22.312Z,8.81
2019-04-16T03:01:22.328Z,8.86
2019-04-16T03:02:23.121Z,8.79
2019-04-16T03:03:24.868Z,8.79
2019-04-16T03:04:26.689Z,8.81
2019-04-16T03:05:22.378Z,8.84
2019-04-16T03:06:22.388Z,8.83
2019-04-16T03:07:22.409Z,8.74
2019-04-16T03:08:22.420Z,8.77
2019-04-16T03:09:22.424Z,8.76
2019-04-16T03:10:22.438Z,8.71
2019-04-16T03:11:22.461Z,8.59
2019-04-16T03:12:22.469Z,8.68
2019-04-16T03:13:23.267Z,8.66
2019-04-16T03:14:22.491Z,8.62
2019-04-16T03:15:22.511Z,8.63
2019-04-16T03:16:22.518Z,8.62
2019-04-16T03:17:22.547Z,8.74
2019-04-16T03:18:22.540Z,8.65
2019-04-16T03:19:22.602Z,8.68
2019-04-16T03:20:23.889Z,8.74
2019-04-16T03:21:24.579Z,8.62
2019-04-16T03:22:22.591Z,8.62
2019-04-16T03:23:22.605Z,8.66
2019-04-16T03:24:22.622Z,8.66
2019-04-16T03:25:22.667Z,8.68
2019-04-16T03:26:22.640Z,8.66
2019-04-16T03:27:23.023Z,8.70
2019-04-16T03:28:23.506Z,8.71
2019-04-16T03:29:22.678Z,8.70
2019-04-16T03:30:22.697Z,8.63
2019-04-16T03:31:23.668Z,8.62
2019-04-16T03:32:22.729Z,8.53
2019-04-16T03:33:22.741Z,8.61
2019-04-16T03:34:22.740Z,8.52
2019-04-16T03:35:26.359Z,8.58
2019-04-16T03:36:22.773Z,8.63
2019-04-16T03:37:22.781Z,8.55
2019-04-16T03:38:22.796Z,8.59
2019-04-16T03:39:22.812Z,8.63
2019-04-16T03:40:25.591Z,8.63
2019-04-16T03:41:25.019Z,8.65
2019-04-16T03:42:24.497Z,8.63
2019-04-16T03:43:22.854Z,8.52
2019-04-16T03:44:22.872Z,8.56
2019-04-16T03:45:22.936Z,8.63
2019-04-16T03:46:22.908Z,8.61
2019-04-16T03:47:22.898Z,8.58
2019-04-16T03:48:23.472Z,8.52
2019-04-16T03:49:24.533Z,8.50
2019-04-16T03:50:22.941Z,8.55
2019-04-16T03:51:22.950Z,8.47
2019-04-16T03:52:22.960Z,8.52
2019-04-16T03:53:22.977Z,8.50
2019-04-16T03:54:23.249Z,8.47
2019-04-16T03:55:26.268Z,8.55
2019-04-16T03:56:23.033Z,8.52
2019-04-16T03:57:23.099Z,8.34
2019-04-16T03:58:23.040Z,8.41
2019-04-16T03:59:23.055Z,8.37
2019-04-16T04:00:23.059Z,8.37
2019-04-16T04:01:23.077Z,8.26
2019-04-16T04:02:23.338Z,8.15
2019-04-16T04:03:25.905Z,8.18
2019-04-16T04:04:23.112Z,8.08
2019-04-16T04:05:23.121Z,8.08
2019-04-16T04:06:23.136Z,8.12
2019-04-16T04:07:23.159Z,8.15
2019-04-16T04:08:23.166Z,8.18
2019-04-16T04:09:23.176Z,8.01
2019-04-16T04:11:23.199Z,8.07
2019-04-16T04:12:23.217Z,8.18
2019-04-16T04:13:23.223Z,8.12
2019-04-16T04:14:23.600Z,8.16
2019-04-16T04:15:25.975Z,8.16
2019-04-16T04:16:23.270Z,8.04
2019-04-16T04:17:23.278Z,8.15
2019-04-16T04:18:23.291Z,8.08
2019-04-16T04:19:23.309Z,8.18
2019-04-16T04:20:23.317Z,8.02
2019-04-16T04:21:23.329Z,8.02
2019-04-16T04:22:25.933Z,8.01
2019-04-16T04:23:25.538Z,7.95
2019-04-16T04:24:23.362Z,7.97
2019-04-16T04:25:23.377Z,7.87
2019-04-16T04:26:23.387Z,7.89
2019-04-16T04:27:23.397Z,7.98
2019-04-16T04:28:23.412Z,7.92
2019-04-16T04:29:24.666Z,7.97
2019-04-16T04:30:25.693Z,7.97
2019-04-16T04:31:23.452Z,7.97
2019-04-16T04:32:23.460Z,7.89
2019-04-16T04:33:23.473Z,7.89
2019-04-16T04:34:23.496Z,7.85
2019-04-16T04:35:23.503Z,7.80
2019-04-16T04:36:27.074Z,7.86
2019-04-16T04:37:23.525Z,7.93
2019-04-16T04:38:23.549Z,7.93
2019-04-16T04:39:23.547Z,7.92
2019-04-16T04:40:23.561Z,7.85
2019-04-16T04:41:24.282Z,7.83
2019-04-16T04:42:25.546Z,7.77
2019-04-16T04:43:23.594Z,7.80
2019-04-16T04:44:23.610Z,7.79
2019-04-16T04:45:23.624Z,7.69
2019-04-16T04:46:23.631Z,7.69
2019-04-16T04:47:23.646Z,7.67
2019-04-16T04:48:24.351Z,7.55
2019-04-16T04:49:23.676Z,7.52
2019-04-16T04:50:23.685Z,7.64
2019-04-16T04:51:23.696Z,7.64
2019-04-16T04:52:23.708Z,7.63
2019-04-16T04:53:23.717Z,7.72
2019-04-16T04:54:23.731Z,7.72
2019-04-16T04:55:26.932Z,7.77
2019-04-16T04:56:27.648Z,7.67
2019-04-16T04:57:23.774Z,7.53
2019-04-16T04:58:23.783Z,7.63
2019-04-16T04:59:23.800Z,7.63
2019-04-16T05:00:23.804Z,7.53
2019-04-16T05:01:23.826Z,7.42
2019-04-16T05:02:23.850Z,7.50
2019-04-16T05:03:23.850Z,7.52
2019-04-16T05:04:23.900Z,7.55
2019-04-16T05:05:25.570Z,7.63
2019-04-16T05:06:26.822Z,7.49
2019-04-16T05:07:25.688Z,7.53
2019-04-16T05:08:23.907Z,7.58
2019-04-16T05:09:23.916Z,7.57
2019-04-16T05:10:23.927Z,7.67
2019-04-16T05:11:23.965Z,7.69
2019-04-16T05:12:23.955Z,7.63
2019-04-16T05:13:25.244Z,7.64
2019-04-16T05:14:25.168Z,7.68
2019-04-16T05:15:26.534Z,7.57
2019-04-16T05:16:24.005Z,7.69
2019-04-16T05:17:24.013Z,7.58
2019-04-16T05:18:24.096Z,7.72
2019-04-16T05:19:24.052Z,7.72
2019-04-16T05:20:24.053Z,7.79
2019-04-16T05:21:24.063Z,7.83
2019-04-16T05:22:24.074Z,7.83
2019-04-16T05:23:25.944Z,7.74
2019-04-16T05:24:28.885Z,7.68
2019-04-16T05:25:24.128Z,7.72
2019-04-16T05:26:24.128Z,7.72
2019-04-16T05:27:24.142Z,7.69
2019-04-16T05:28:24.154Z,7.74
2019-04-16T05:29:24.166Z,7.77
2019-04-16T05:30:24.183Z,7.75
2019-04-16T05:31:25.594Z,7.87
2019-04-16T05:32:25.898Z,7.85
2019-04-16T05:33:24.214Z,7.87
2019-04-16T05:34:24.220Z,7.86
2019-04-16T05:35:24.237Z,7.92
2019-04-16T05:36:24.256Z,7.87
2019-04-16T05:37:24.265Z,7.87
2019-04-16T05:38:24.781Z,7.82
2019-04-16T05:39:27.376Z,7.87
2019-04-16T05:40:24.317Z,7.80
2019-04-16T05:41:24.314Z,7.60
2019-04-16T05:42:26.067Z,7.75
2019-04-16T05:43:24.334Z,7.72
2019-04-16T05:44:24.351Z,7.82
2019-04-16T05:45:24.357Z,7.87
2019-04-16T05:46:24.376Z,7.82
2019-04-16T05:47:24.388Z,7.92
2019-04-16T05:48:24.395Z,7.92
2019-04-16T05:49:26.006Z,8.00
2019-04-16T05:50:28.760Z,8.01
2019-04-16T05:51:24.431Z,8.00
2019-04-16T05:52:24.462Z,8.04
2019-04-16T05:53:24.457Z,8.02
2019-04-16T05:54:24.476Z,8.18
2019-04-16T05:55:24.480Z,8.04
2019-04-16T05:56:24.968Z,8.12
2019-04-16T05:57:26.128Z,8.22
2019-04-16T05:58:24.521Z,8.11
2019-04-16T05:59:24.534Z,8.15
2019-04-16T06:00:24.708Z,8.34
2019-04-16T06:01:24.561Z,8.38
2019-04-16T06:02:24.574Z,8.53
2019-04-16T06:03:24.753Z,8.63
2019-04-16T06:04:25.587Z,8.66
2019-04-16T06:05:27.969Z,8.79
2019-04-16T06:06:24.618Z,8.79
2019-04-16T06:07:24.642Z,8.62
2019-04-16T06:08:24.653Z,8.58
2019-04-16T06:09:24.669Z,8.65
2019-04-16T06:10:24.889Z,8.70
2019-04-16T06:11:29.872Z,8.61
2019-04-16T06:12:24.787Z,8.53
2019-04-16T06:13:24.707Z,8.52
2019-04-16T06:14:25.935Z,8.55
2019-04-16T06:15:24.736Z,8.62
2019-04-16T06:16:25.755Z,8.56
2019-04-16T06:17:25.808Z,8.53
2019-04-16T06:18:24.772Z,8.52
2019-04-16T06:19:24.807Z,8.77
2019-04-16T06:20:24.797Z,9.13
2019-04-16T06:21:25.790Z,9.10
2019-04-16T06:23:25.134Z,9.05
2019-04-16T06:24:24.849Z,9.02
2019-04-16T06:25:24.868Z,9.01
2019-04-16T06:26:24.874Z,8.98
2019-04-16T06:27:24.945Z,8.98
2019-04-16T06:28:24.903Z,8.94
2019-04-16T06:29:25.419Z,8.87
2019-04-16T06:31:24.946Z,8.91
2019-04-16T06:32:27.818Z,8.92
2019-04-16T06:33:24.966Z,8.99
2019-04-16T06:34:24.974Z,8.95
2019-04-16T06:35:25.005Z,8.95
2019-04-16T06:36:25.000Z,9.02
2019-04-16T06:37:27.193Z,9.13
2019-04-16T06:38:25.041Z,9.10
2019-04-16T06:39:26.528Z,9.13
2019-04-16T06:40:25.099Z,9.10
2019-04-16T06:41:25.067Z,8.96
2019-04-16T06:42:25.081Z,9.05
2019-04-16T06:43:26.145Z,8.99
2019-04-16T06:44:29.777Z,9.08
2019-04-16T06:45:25.409Z,9.10
2019-04-16T06:46:25.137Z,9.10
2019-04-16T06:47:25.152Z,9.18
2019-04-16T06:48:25.180Z,9.10
2019-04-16T06:49:25.166Z,9.29
2019-04-16T06:50:32.112Z,9.15
2019-04-16T06:51:25.194Z,9.33
2019-04-16T06:52:25.206Z,9.40
2019-04-16T06:54:25.983Z,9.53
2019-04-16T06:56:25.283Z,9.53
2019-04-16T06:57:26.951Z,9.53
2019-04-16T06:58:27.512Z,9.53
2019-04-16T06:59:26.801Z,9.53
2019-04-16T07:00:25.363Z,9.61
2019-04-16T07:01:26.111Z,9.61
2019-04-16T07:02:25.382Z,9.54
2019-04-16T07:03:27.156Z,9.60
2019-04-16T07:04:29.564Z,9.71
2019-04-16T07:05:25.371Z,9.72
2019-04-16T07:06:25.400Z,9.76
2019-04-16T07:07:37.898Z,9.86
2019-04-16T07:08:36.835Z,9.90
2019-04-16T07:09:26.446Z,9.91
2019-04-16T07:10:28.671Z,10.02
2019-04-16T07:11:25.524Z,10.12
2019-04-16T07:12:25.762Z,10.18
2019-04-16T07:13:25.511Z,10.17
2019-04-16T07:14:25.866Z,10.22
2019-04-16T07:15:28.578Z,10.15
2019-04-16T07:16:28.899Z,10.25
2019-04-16T07:17:25.529Z,10.27
2019-04-16T07:18:25.549Z,10.30
2019-04-16T07:19:25.557Z,10.38
2019-04-16T07:20:25.572Z,10.42
2019-04-16T07:21:26.071Z,10.51
2019-04-16T07:22:25.592Z,10.48
2019-04-16T07:23:26.022Z,10.55
2019-04-16T07:24:30.156Z,10.47
2019-04-16T07:25:27.844Z,10.63
2019-04-16T07:26:25.729Z,10.51
2019-04-16T07:27:25.834Z,10.59
2019-04-16T07:28:26.817Z,10.68
2019-04-16T07:29:25.904Z,10.70
2019-04-16T07:30:25.724Z,10.71
2019-04-16T07:32:25.745Z,10.68
2019-04-16T07:33:25.738Z,10.71
2019-04-16T07:34:25.763Z,10.78
2019-04-16T07:35:27.241Z,10.89
2019-04-16T07:36:27.277Z,10.94
2019-04-16T07:37:25.788Z,11.09
2019-04-16T07:38:25.809Z,11.00
2019-04-16T07:39:29.594Z,11.10
2019-04-16T07:40:25.830Z,11.11
2019-04-16T07:41:25.842Z,11.09
2019-04-16T07:42:26.481Z,11.11
2019-04-16T07:43:30.946Z,11.17
2019-04-16T07:44:25.885Z,11.19
2019-04-16T07:45:25.919Z,11.28
2019-04-16T07:46:25.911Z,11.29
2019-04-16T07:47:25.926Z,11.35
2019-04-16T07:48:25.978Z,11.27
2019-04-16T07:50:26.204Z,11.35
2019-04-16T07:52:26.710Z,11.46
2019-04-16T07:53:26.029Z,11.47
2019-04-16T07:54:26.021Z,11.55
2019-04-16T07:55:26.732Z,11.54
2019-04-16T07:56:26.102Z,11.58
2019-04-16T07:57:26.070Z,11.54
2019-04-16T07:58:26.923Z,11.70
2019-04-16T07:59:26.088Z,11.82
2019-04-16T08:00:26.106Z,11.85
2019-04-16T08:01:26.113Z,11.86
2019-04-16T08:02:26.136Z,11.96
2019-04-16T08:03:26.865Z,11.86
2019-04-16T08:04:29.252Z,11.86
2019-04-16T08:05:27.997Z,11.90
2019-04-16T08:06:26.195Z,12.01
2019-04-16T08:07:26.223Z,12.01
2019-04-16T08:08:26.374Z,11.99
2019-04-16T08:09:28.895Z,12.02
2019-04-16T08:10:26.247Z,12.12
2019-04-16T08:11:26.263Z,12.21
2019-04-16T08:12:30.490Z,12.21
2019-04-16T08:13:26.275Z,12.20
2019-04-16T08:14:26.300Z,12.16
2019-04-16T08:15:26.316Z,12.12
2019-04-16T08:16:26.334Z,12.21
2019-04-16T08:17:26.341Z,12.34
2019-04-16T08:18:26.345Z,12.29
2019-04-16T08:19:36.652Z,12.32
2019-04-16T08:20:26.374Z,12.41
2019-04-16T08:21:26.387Z,12.38
2019-04-16T08:22:26.475Z,12.49
2019-04-16T08:23:26.419Z,12.39
2019-04-16T08:24:26.451Z,12.46
2019-04-16T08:25:26.455Z,12.46
2019-04-16T08:26:26.525Z,12.42
2019-04-16T08:27:26.476Z,12.50
2019-04-16T08:28:26.494Z,12.49
2019-04-16T08:29:26.800Z,12.62
2019-04-16T08:30:26.519Z,12.59
2019-04-16T08:31:26.526Z,12.74
2019-04-16T08:32:26.589Z,12.70
2019-04-16T08:33:28.549Z,12.67
2019-04-16T08:34:26.574Z,12.78
2019-04-16T08:35:26.584Z,12.72
2019-04-16T08:36:27.274Z,12.75
2019-04-16T08:37:26.615Z,12.79
2019-04-16T08:38:26.778Z,12.79
2019-04-16T08:39:26.637Z,12.74
2019-04-16T08:40:26.649Z,12.87
2019-04-16T08:41:26.668Z,12.79
2019-04-16T08:42:29.452Z,12.86
2019-04-16T08:43:29.624Z,13.01
2019-04-16T08:44:26.788Z,13.08
2019-04-16T08:45:26.741Z,13.04
2019-04-16T08:46:28.336Z,13.20
2019-04-16T08:47:26.749Z,13.25
2019-04-16T08:48:26.766Z,13.30
2019-04-16T08:49:26.781Z,13.38
2019-04-16T08:50:26.986Z,13.45
2019-04-16T08:51:30.675Z,13.48
2019-04-16T08:52:26.823Z,13.49
2019-04-16T08:53:26.852Z,13.60
2019-04-16T08:54:26.917Z,13.52
2019-04-16T08:55:26.859Z,13.52
2019-04-16T08:56:26.883Z,13.54
2019-04-16T08:58:26.905Z,13.60
2019-04-16T08:59:26.917Z,13.51
2019-04-16T09:00:27.028Z,13.59
2019-04-16T09:01:26.958Z,13.51
2019-04-16T09:02:27.309Z,13.48
2019-04-16T09:03:30.113Z,13.52
2019-04-16T09:04:26.991Z,13.60
2019-04-16T09:05:27.003Z,13.62
2019-04-16T09:06:27.014Z,13.66
2019-04-16T09:07:27.031Z,13.69
2019-04-16T09:08:27.056Z,13.84
2019-04-16T09:09:27.064Z,13.79
2019-04-16T09:10:30.004Z,13.85
2019-04-16T09:11:28.555Z,13.81
2019-04-16T09:12:27.150Z,13.79
2019-04-16T09:13:27.173Z,13.85
2019-04-16T09:14:27.124Z,13.89
2019-04-16T09:15:27.556Z,13.89
2019-04-16T09:16:27.157Z,13.95
2019-04-16T09:17:27.177Z,13.85
2019-04-16T09:18:27.212Z,13.89
2019-04-16T09:19:27.208Z,13.91
2019-04-16T09:20:27.213Z,13.89
2019-04-16T09:21:28.031Z,13.96
2019-04-16T09:22:27.241Z,14.00
2019-04-16T09:23:27.260Z,13.99
2019-04-16T09:24:27.356Z,14.02
2019-04-16T09:25:27.287Z,14.09
2019-04-16T09:26:27.299Z,14.14
2019-04-16T09:27:29.624Z,14.10
2019-04-16T09:28:27.343Z,14.15
2019-04-16T09:29:27.354Z,14.21
2019-04-16T09:30:28.296Z,14.32
2019-04-16T09:31:27.368Z,14.21
2019-04-16T09:32:28.456Z,14.35
2019-04-16T09:33:30.403Z,14.40
2019-04-16T09:34:27.430Z,14.40
2019-04-16T09:35:27.445Z,14.37
2019-04-16T09:36:27.447Z,14.52
2019-04-16T09:37:28.664Z,14.57
2019-04-16T09:38:27.497Z,14.62
2019-04-16T09:39:27.496Z,14.55
2019-04-16T09:40:27.616Z,14.58
2019-04-16T09:41:27.513Z,14.60
2019-04-16T09:42:27.552Z,14.57
2019-04-16T09:43:27.540Z,14.68
2019-04-16T09:44:31.532Z,14.65
2019-04-16T09:45:27.587Z,14.69
2019-04-16T09:46:49.777Z,14.65
2019-04-16T09:47:28.966Z,14.73
2019-04-16T09:48:27.612Z,14.86
2019-04-16T09:49:27.627Z,14.95
2019-04-16T09:50:27.644Z,15.03
2019-04-16T09:51:27.689Z,15.07
2019-04-16T09:52:27.705Z,15.13
2019-04-16T09:53:34.114Z,15.09
2019-04-16T09:54:27.720Z,15.17
2019-04-16T09:55:27.711Z,15.27
2019-04-16T09:56:28.942Z,15.19
2019-04-16T09:57:30.849Z,15.31
2019-04-16T09:59:27.792Z,15.23
2019-04-16T10:00:27.785Z,15.35
2019-04-16T10:01:27.828Z,15.41
2019-04-16T10:02:27.820Z,15.44
2019-04-16T10:03:28.502Z,15.47
2019-04-16T10:04:27.843Z,15.43
2019-04-16T10:05:29.592Z,15.32
2019-04-16T10:06:27.898Z,15.36
2019-04-16T10:07:28.011Z,15.46
2019-04-16T10:08:29.491Z,15.51
2019-04-16T10:09:27.935Z,15.54
2019-04-16T10:10:29.073Z,15.71
2019-04-16T10:11:27.960Z,15.69
2019-04-16T10:12:27.980Z,15.75
2019-04-16T10:13:31.791Z,15.69
2019-04-16T10:14:27.993Z,15.78
2019-04-16T10:15:28.006Z,15.78
2019-04-16T10:16:28.072Z,15.78
2019-04-16T10:17:28.051Z,15.78
2019-04-16T10:18:28.054Z,15.82
2019-04-16T10:19:28.082Z,15.78
2019-04-16T10:20:28.077Z,15.80
2019-04-16T10:21:29.073Z,15.72
2019-04-16T10:22:28.111Z,15.89
2019-04-16T10:23:28.169Z,15.87
2019-04-16T10:24:28.235Z,15.89
2019-04-16T10:25:28.170Z,15.93
2019-04-16T10:26:28.182Z,16.05
2019-04-16T10:27:32.262Z,16.07
2019-04-16T10:28:28.286Z,16.08
2019-04-16T10:29:28.205Z,16.02
2019-04-16T10:30:30.040Z,16.11
2019-04-16T10:31:28.245Z,16.24
2019-04-16T10:32:28.247Z,16.25
2019-04-16T10:33:28.266Z,16.35
2019-04-16T10:34:28.300Z,16.46
2019-04-16T10:35:28.297Z,16.52
2019-04-16T10:36:28.313Z,16.60
2019-04-16T10:37:28.353Z,16.75
2019-04-16T10:38:28.369Z,16.79
2019-04-16T10:39:28.415Z,16.88
2019-04-16T10:40:28.363Z,16.96
2019-04-16T10:41:28.376Z,17.04
2019-04-16T10:42:28.417Z,17.07
2019-04-16T10:43:28.405Z,17.22
2019-04-16T10:44:28.429Z,17.15
2019-04-16T10:45:28.459Z,17.23
2019-04-16T10:46:28.473Z,17.04
2019-04-16T10:47:28.562Z,17.22
2019-04-16T10:48:28.481Z,17.18
2019-04-16T10:49:28.500Z,17.19
2019-04-16T10:50:28.507Z,17.22
2019-04-16T10:51:28.530Z,17.06
2019-04-16T10:52:28.560Z,17.06
2019-04-16T10:53:28.579Z,17.07
2019-04-16T10:54:28.568Z,17.15
2019-04-16T10:55:28.580Z,17.22
2019-04-16T10:56:28.608Z,17.26
2019-04-16T10:58:31.581Z,17.18
2019-04-16T10:59:30.437Z,17.30
2019-04-16T11:00:29.616Z,17.41
2019-04-16T11:01:34.650Z,17.40
2019-04-16T11:02:28.914Z,17.56
2019-04-16T11:03:28.902Z,17.71
2019-04-16T11:04:28.727Z,17.64
2019-04-16T11:05:28.754Z,17.64
2019-04-16T11:06:28.775Z,17.48
2019-04-16T11:07:28.758Z,17.48
2019-04-16T11:08:28.817Z,17.54
2019-04-16T11:09:29.018Z,17.51
2019-04-16T11:10:28.852Z,17.62
2019-04-16T11:11:28.853Z,17.78
2019-04-16T11:12:29.136Z,17.75
2019-04-16T11:13:28.900Z,17.87
2019-04-16T11:14:28.884Z,17.92
2019-04-16T11:15:28.908Z,17.92
2019-04-16T11:16:29.094Z,17.92
2019-04-16T11:17:28.974Z,18.11
2019-04-16T11:18:28.936Z,18.08
2019-04-16T11:19:29.256Z,18.17
2019-04-16T11:20:28.981Z,18.08
2019-04-16T11:21:28.963Z,18.10
2019-04-16T11:22:28.995Z,18.00
2019-04-16T11:23:28.997Z,18.05
2019-04-16T11:24:29.042Z,18.03
2019-04-16T11:25:29.031Z,18.07
2019-04-16T11:26:29.038Z,18.15
2019-04-16T11:27:29.056Z,18.10
2019-04-16T11:28:29.075Z,18.08
2019-04-16T11:29:29.133Z,18.05
2019-04-16T11:30:29.139Z,18.12
2019-04-16T11:31:29.116Z,18.18
2019-04-16T11:32:29.139Z,18.11
2019-04-16T11:33:29.143Z,18.20
2019-04-16T11:34:29.184Z,18.14
2019-04-16T11:35:29.192Z,18.12
2019-04-16T11:36:30.909Z,18.20
2019-04-16T11:37:33.193Z,18.20
2019-04-16T11:38:29.221Z,18.23
2019-04-16T11:39:29.263Z,18.17
2019-04-16T11:40:29.281Z,18.20
2019-04-16T11:41:29.307Z,18.07
2019-04-16T11:42:29.294Z,18.08
2019-04-16T11:43:29.323Z,18.10
2019-04-16T11:44:29.325Z,18.23
2019-04-16T11:45:29.736Z,18.26
2019-04-16T11:46:29.350Z,18.44
2019-04-16T11:47:33.855Z,18.51
2019-04-16T11:48:29.422Z,18.33
2019-04-16T11:49:29.439Z,18.37
2019-04-16T11:50:29.414Z,18.45
2019-04-16T11:51:29.553Z,18.44
2019-04-16T11:52:29.428Z,18.57
2019-04-16T11:53:29.452Z,18.54
2019-04-16T11:54:29.460Z,18.54
2019-04-16T11:55:29.521Z,18.55
2019-04-16T11:56:29.517Z,18.54
2019-04-16T11:57:33.213Z,18.55
2019-04-16T11:58:29.550Z,18.70
2019-04-16T11:59:29.622Z,18.75
2019-04-16T12:00:29.600Z,18.84
2019-04-16T12:01:29.609Z,18.84
2019-04-16T12:02:29.578Z,18.84
2019-04-16T12:03:29.683Z,18.80
2019-04-16T12:04:29.642Z,18.69
2019-04-16T12:05:29.646Z,18.69
2019-04-16T12:06:29.737Z,18.73
2019-04-16T12:07:29.663Z,18.85
2019-04-16T12:08:29.686Z,19.07
2019-04-16T12:09:29.746Z,19.16
2019-04-16T12:10:29.737Z,19.11
2019-04-16T12:11:29.795Z,19.23
2019-04-16T12:12:29.754Z,19.25
2019-04-16T12:13:29.788Z,19.21
2019-04-16T12:14:34.351Z,19.29
2019-04-16T12:15:29.786Z,19.37
2019-04-16T12:16:29.813Z,19.48
2019-04-16T12:17:29.838Z,19.48
2019-04-16T12:18:31.939Z,19.37
2019-04-16T12:19:29.924Z,19.33
2019-04-16T12:20:29.969Z,19.23
2019-04-16T12:21:30.139Z,19.36
2019-04-16T12:22:29.922Z,19.43
2019-04-16T12:23:29.999Z,19.55
2019-04-16T12:24:29.920Z,19.48
2019-04-16T12:25:30.036Z,19.36
2019-04-16T12:26:29.959Z,19.36
2019-04-16T12:27:30.004Z,19.37
2019-04-16T12:28:30.022Z,19.32
2019-04-16T12:29:30.011Z,19.14
2019-04-16T12:30:30.040Z,19.13
2019-04-16T12:31:30.033Z,19.22
2019-04-16T12:32:30.064Z,19.36
2019-04-16T12:33:30.099Z,19.33
2019-04-16T12:34:30.068Z,19.31
2019-04-16T12:35:31.126Z,19.25
2019-04-16T12:36:30.122Z,19.22
2019-04-16T12:37:30.426Z,19.29
2019-04-16T12:38:30.297Z,19.32
2019-04-16T12:39:30.166Z,19.48
2019-04-16T12:40:30.186Z,19.63
2019-04-16T12:41:30.191Z,19.84
2019-04-16T12:42:30.312Z,19.98
2019-04-16T12:43:30.250Z,19.94
2019-04-16T12:44:44.579Z,19.54
2019-04-16T12:45:30.257Z,19.48
2019-04-16T12:46:30.306Z,19.37
2019-04-16T12:47:30.318Z,19.44
2019-04-16T12:48:30.296Z,19.59
2019-04-16T12:49:30.350Z,19.66
2019-04-16T12:50:30.342Z,19.80
2019-04-16T12:51:30.377Z,19.96
2019-04-16T12:52:30.352Z,20.13
2019-04-16T12:53:30.368Z,20.26
2019-04-16T12:54:30.384Z,20.41
2019-04-16T12:55:31.691Z,20.39
2019-04-16T12:56:30.454Z,20.51
2019-04-16T12:57:30.439Z,20.08
2019-04-16T12:58:30.438Z,19.98
2019-04-16T12:59:30.461Z,19.96
2019-04-16T13:00:31.702Z,20.16
2019-04-16T13:01:33.353Z,20.24
2019-04-16T13:02:30.509Z,20.42
2019-04-16T13:03:30.520Z,20.11
2019-04-16T13:04:30.594Z,20.16
2019-04-16T13:05:30.569Z,20.16
2019-04-16T13:06:30.565Z,20.14
2019-04-16T13:07:30.614Z,20.14
2019-04-16T13:08:30.603Z,20.41
2019-04-16T13:09:30.691Z,20.54
2019-04-16T13:10:30.627Z,20.59
2019-04-16T13:11:31.910Z,20.55
2019-04-16T13:12:32.652Z,20.32
2019-04-16T13:13:30.677Z,20.47
2019-04-16T13:14:30.727Z,20.67
2019-04-16T13:15:30.722Z,20.54
2019-04-16T13:16:30.719Z,20.59